TimeEDT,TemperatureF,Dew PointF,Humidity,Sea Level PressureIn,VisibilityMPH,Wind Direction,Wind SpeedMPH,Gust SpeedMPH,PrecipitationIn,Events,Conditions,WindDirDegrees,DateUTC
12:07 AM,48.2,46.4,93,30.31,3.0,Calm,Calm,-,N/A,,Overcast,0,2013-09-28 04:07:00
12:21 AM,48.2,48.2,100,30.31,2.0,Calm,Calm,-,N/A,,Overcast,0,2013-09-28 04:21:00
12:29 AM,48.2,46.4,93,30.31,1.2,Calm,Calm,-,N/A,,Overcast,0,2013-09-28 04:29:00
12:37 AM,48.2,46.4,93,30.31,0.5,Calm,Calm,-,N/A,Fog,Fog,0,2013-09-28 04:37:00
12:46 AM,48.2,48.2,100,30.31,1.5,Calm,Calm,-,N/A,,Overcast,0,2013-09-28 04:46:00
12:52 AM,48.0,46.9,96,30.32,6.0,Calm,Calm,-,N/A,,Overcast,0,2013-09-28 04:52:00
1:17 AM,48.2,46.4,93,30.32,1.8,East,3.5,-,N/A,,Overcast,90,2013-09-28 05:17:00
1:27 AM,46.4,46.4,100,30.32,3.0,Calm,Calm,-,N/A,,Overcast,0,2013-09-28 05:27:00
1:36 AM,46.4,44.6,93,30.32,10.0,Calm,Calm,-,N/A,,Overcast,0,2013-09-28 05:36:00
1:52 AM,46.0,43.0,89,30.33,10.0,Calm,Calm,-,N/A,,Scattered Clouds,0,2013-09-28 05:52:00
2:05 AM,44.6,44.6,100,30.32,2.0,ESE,3.5,-,N/A,,Mostly Cloudy,110,2013-09-28 06:05:00
2:08 AM,44.6,44.6,100,30.32,1.2,ESE,3.5,-,N/A,,Mostly Cloudy,110,2013-09-28 06:08:00
2:19 AM,44.6,44.6,100,30.32,0.8,Calm,Calm,-,N/A,,Overcast,0,2013-09-28 06:19:00
2:32 AM,44.6,44.6,100,30.32,1.5,ESE,3.5,-,N/A,,Overcast,110,2013-09-28 06:32:00
2:35 AM,44.6,44.6,100,30.32,3.0,ESE,4.6,-,N/A,,Overcast,110,2013-09-28 06:35:00
2:52 AM,45.0,44.1,97,30.33,10.0,East,3.5,-,N/A,,Overcast,90,2013-09-28 06:52:00
3:24 AM,44.6,44.6,100,30.32,1.8,Calm,Calm,-,N/A,,Overcast,0,2013-09-28 07:24:00
3:27 AM,44.6,42.8,93,30.32,0.8,Calm,Calm,-,N/A,,Overcast,0,2013-09-28 07:27:00
3:39 AM,44.6,42.8,93,30.32,0.2,Calm,Calm,-,N/A,Fog,Fog,0,2013-09-28 07:39:00
3:52 AM,44.1,44.1,100,30.33,0.5,Calm,Calm,-,N/A,Fog,Fog,0,2013-09-28 07:52:00
4:11 AM,44.6,42.8,93,30.32,1.2,Calm,Calm,-,N/A,,Overcast,0,2013-09-28 08:11:00
4:26 AM,44.6,42.8,93,30.32,0.5,Calm,Calm,-,N/A,Fog,Fog,0,2013-09-28 08:26:00
4:52 AM,44.1,43.0,96,30.34,0.2,Calm,Calm,-,N/A,Fog,Fog,0,2013-09-28 08:52:00
5:04 AM,44.6,42.8,93,30.33,0.8,Calm,Calm,-,N/A,,Mist,0,2013-09-28 09:04:00
5:07 AM,44.6,42.8,93,30.33,1.5,Calm,Calm,-,N/A,,Overcast,0,2013-09-28 09:07:00
5:23 AM,44.6,42.8,93,30.33,0.8,Calm,Calm,-,N/A,,Overcast,0,2013-09-28 09:23:00
5:39 AM,44.6,42.8,93,30.34,0.2,Calm,Calm,-,N/A,Fog,Fog,0,2013-09-28 09:39:00
5:52 AM,44.1,43.0,96,30.35,0.5,Calm,Calm,-,N/A,Fog,Fog,0,2013-09-28 09:52:00
6:52 AM,44.1,42.1,93,30.37,0.5,Calm,Calm,-,N/A,Fog,Fog,0,2013-09-28 10:52:00
7:06 AM,42.8,42.8,100,30.37,0.2,Calm,Calm,-,N/A,Fog,Fog,0,2013-09-28 11:06:00
7:52 AM,43.0,42.1,97,30.39,0.2,Calm,Calm,-,N/A,Fog,Fog,0,2013-09-28 11:52:00
8:48 AM,44.6,42.8,93,30.38,0.5,Calm,Calm,-,N/A,Fog,Fog,0,2013-09-28 12:48:00
8:52 AM,44.1,44.1,100,30.39,0.5,Calm,Calm,-,N/A,Fog,Fog,0,2013-09-28 12:52:00
9:00 AM,44.6,44.6,100,30.37,0.2,Calm,Calm,-,N/A,Fog,Fog,0,2013-09-28 13:00:00
9:07 AM,44.6,44.6,100,30.37,0.8,Calm,Calm,-,N/A,,Overcast,0,2013-09-28 13:07:00
9:15 AM,46.4,44.6,93,30.37,1.5,Calm,Calm,-,N/A,,Overcast,0,2013-09-28 13:15:00
9:29 AM,46.4,44.6,93,30.37,1.2,Calm,Calm,-,N/A,,Overcast,0,2013-09-28 13:29:00
9:31 AM,46.4,44.6,93,30.37,2.0,Calm,Calm,-,N/A,,Overcast,0,2013-09-28 13:31:00
9:41 AM,46.4,44.6,93,30.37,1.8,Calm,Calm,-,N/A,,Mostly Cloudy,0,2013-09-28 13:41:00
9:45 AM,46.4,44.6,93,30.37,3.0,Calm,Calm,-,N/A,,Mostly Cloudy,0,2013-09-28 13:45:00
9:52 AM,46.9,44.1,90,30.39,10.0,Calm,Calm,-,N/A,,Scattered Clouds,0,2013-09-28 13:52:00
10:52 AM,57.9,48.0,70,30.37,10.0,Calm,Calm,-,N/A,,Clear,0,2013-09-28 14:52:00
11:52 AM,64.9,48.0,54,30.35,10.0,West,3.5,-,N/A,,Clear,270,2013-09-28 15:52:00
12:52 PM,69.1,46.9,45,30.32,10.0,Calm,Calm,-,N/A,,Clear,0,2013-09-28 16:52:00
1:52 PM,70.0,45.0,41,30.30,10.0,Calm,Calm,-,N/A,,Partly Cloudy,0,2013-09-28 17:52:00
2:52 PM,70.0,50.0,49,30.28,10.0,SSW,3.5,-,N/A,,Clear,200,2013-09-28 18:52:00
3:52 PM,73.0,48.9,42,30.27,10.0,NNW,8.1,-,N/A,,Overcast,340,2013-09-28 19:52:00
4:52 PM,70.0,51.1,51,30.27,10.0,SW,5.8,-,N/A,,Mostly Cloudy,220,2013-09-28 20:52:00
5:52 PM,66.0,52.0,60,30.28,10.0,Calm,Calm,-,N/A,,Clear,0,2013-09-28 21:52:00
6:52 PM,57.9,54.0,87,30.29,10.0,Calm,Calm,-,N/A,,Clear,0,2013-09-28 22:52:00
7:52 PM,54.0,51.1,90,30.29,10.0,Calm,Calm,-,N/A,,Clear,0,2013-09-28 23:52:00
8:52 PM,52.0,48.9,89,30.30,10.0,Calm,Calm,-,N/A,,Clear,0,2013-09-29 00:52:00
9:52 PM,50.0,48.0,93,30.30,10.0,Calm,Calm,-,N/A,,Clear,0,2013-09-29 01:52:00
10:52 PM,48.0,46.0,93,30.29,10.0,Calm,Calm,-,N/A,,Clear,0,2013-09-29 02:52:00
11:52 PM,48.0,46.9,96,30.28,10.0,Calm,Calm,-,N/A,,Clear,0,2013-09-29 03:52:00